sensor_id;sensor_type;location;lat;lon;timestamp;pressure;altitude;pressure_sealevel;temperature;humidity
19860;BME280;2395;50.738;7.122;2022-08-07T00:01:25;101996.47;;;17.92;49.33
19860;BME280;2395;50.738;7.122;2022-08-07T00:03:52;101995.78;;;17.88;50.01
19860;BME280;2395;50.738;7.122;2022-08-07T00:06:19;101995.69;;;17.71;50.20
19860;BME280;2395;50.738;7.122;2022-08-07T00:08:48;102002.84;;;17.26;51.70
19860;BME280;2395;50.738;7.122;2022-08-07T00:11:15;101997.59;;;17.48;51.71
19860;BME280;2395;50.738;7.122;2022-08-07T00:13:42;101999.88;;;17.35;52.15
19860;BME280;2395;50.738;7.122;2022-08-07T00:16:11;101997.72;;;17.45;51.88
19860;BME280;2395;50.738;7.122;2022-08-07T00:18:38;101998.59;;;17.45;51.50
19860;BME280;2395;50.738;7.122;2022-08-07T00:21:08;101996.78;;;17.47;51.90
19860;BME280;2395;50.738;7.122;2022-08-07T00:23:39;101994.03;;;17.30;52.25
19860;BME280;2395;50.738;7.122;2022-08-07T00:26:09;101986.91;;;17.35;52.42
19860;BME280;2395;50.738;7.122;2022-08-07T00:28:37;101985.59;;;17.25;52.84
19860;BME280;2395;50.738;7.122;2022-08-07T00:31:08;101981.19;;;17.27;53.07
19860;BME280;2395;50.738;7.122;2022-08-07T00:33:38;101982.91;;;17.27;53.39
19860;BME280;2395;50.738;7.122;2022-08-07T00:36:07;101976.00;;;17.27;53.44
19860;BME280;2395;50.738;7.122;2022-08-07T00:38:34;101976.69;;;17.11;54.46
19860;BME280;2395;50.738;7.122;2022-08-07T00:41:03;101970.78;;;16.88;54.18
19860;BME280;2395;50.738;7.122;2022-08-07T00:43:32;101977.28;;;16.76;54.94
19860;BME280;2395;50.738;7.122;2022-08-07T00:46:00;101980.38;;;16.86;55.32
19860;BME280;2395;50.738;7.122;2022-08-07T00:48:28;101965.78;;;16.83;54.50
19860;BME280;2395;50.738;7.122;2022-08-07T00:50:55;101966.72;;;16.81;55.16
19860;BME280;2395;50.738;7.122;2022-08-07T00:53:23;101959.63;;;16.64;54.89
19860;BME280;2395;50.738;7.122;2022-08-07T00:55:50;101967.59;;;16.60;55.13
19860;BME280;2395;50.738;7.122;2022-08-07T00:58:19;101964.38;;;16.33;55.29
19860;BME280;2395;50.738;7.122;2022-08-07T01:00:48;101966.00;;;16.36;56.72
19860;BME280;2395;50.738;7.122;2022-08-07T01:03:17;101969.19;;;16.20;56.53
19860;BME280;2395;50.738;7.122;2022-08-07T01:05:45;101966.13;;;16.10;56.40
19860;BME280;2395;50.738;7.122;2022-08-07T01:08:13;101963.53;;;16.10;56.49
19860;BME280;2395;50.738;7.122;2022-08-07T01:10:40;101962.50;;;16.14;56.44
19860;BME280;2395;50.738;7.122;2022-08-07T01:13:09;101965.88;;;16.16;55.85
19860;BME280;2395;50.738;7.122;2022-08-07T01:15:37;101969.47;;;16.12;55.94
19860;BME280;2395;50.738;7.122;2022-08-07T01:18:06;101960.97;;;16.10;55.94
19860;BME280;2395;50.738;7.122;2022-08-07T01:20:42;101960.97;;;16.10;56.54
19860;BME280;2395;50.738;7.122;2022-08-07T01:23:12;101957.44;;;16.11;57.29
19860;BME280;2395;50.738;7.122;2022-08-07T01:25:41;101951.84;;;16.22;57.04
19860;BME280;2395;50.738;7.122;2022-08-07T01:28:09;101961.03;;;16.30;56.13
19860;BME280;2395;50.738;7.122;2022-08-07T01:30:37;101959.53;;;16.25;57.11
19860;BME280;2395;50.738;7.122;2022-08-07T01:33:04;101960.78;;;16.15;56.83
19860;BME280;2395;50.738;7.122;2022-08-07T01:35:32;101955.03;;;16.29;57.43
19860;BME280;2395;50.738;7.122;2022-08-07T01:37:59;101959.69;;;16.20;57.81
19860;BME280;2395;50.738;7.122;2022-08-07T01:40:27;101949.28;;;15.99;58.08
19860;BME280;2395;50.738;7.122;2022-08-07T01:42:55;101946.81;;;15.96;58.29
19860;BME280;2395;50.738;7.122;2022-08-07T01:45:23;101952.22;;;15.90;58.32
19860;BME280;2395;50.738;7.122;2022-08-07T01:47:51;101955.56;;;15.70;57.99
19860;BME280;2395;50.738;7.122;2022-08-07T01:50:19;101959.00;;;15.94;59.42
19860;BME280;2395;50.738;7.122;2022-08-07T01:52:51;101958.38;;;15.87;58.84
19860;BME280;2395;50.738;7.122;2022-08-07T01:55:23;101961.25;;;15.80;58.73
19860;BME280;2395;50.738;7.122;2022-08-07T01:57:57;101953.66;;;15.75;58.51
19860;BME280;2395;50.738;7.122;2022-08-07T02:00:28;101963.16;;;15.75;59.00
19860;BME280;2395;50.738;7.122;2022-08-07T02:03:03;101962.72;;;15.64;59.97
19860;BME280;2395;50.738;7.122;2022-08-07T02:05:36;101958.94;;;15.72;58.60
19860;BME280;2395;50.738;7.122;2022-08-07T02:08:09;101955.50;;;15.72;59.42
19860;BME280;2395;50.738;7.122;2022-08-07T02:10:39;101952.06;;;15.71;58.58
19860;BME280;2395;50.738;7.122;2022-08-07T02:13:11;101963.34;;;15.70;60.13
19860;BME280;2395;50.738;7.122;2022-08-07T02:15:40;101959.31;;;15.62;58.82
19860;BME280;2395;50.738;7.122;2022-08-07T02:18:11;101951.50;;;15.41;59.89
19860;BME280;2395;50.738;7.122;2022-08-07T02:20:40;101952.00;;;15.27;60.55
19860;BME280;2395;50.738;7.122;2022-08-07T02:23:10;101958.81;;;15.28;61.07
19860;BME280;2395;50.738;7.122;2022-08-07T02:25:41;101961.41;;;15.28;61.20
19860;BME280;2395;50.738;7.122;2022-08-07T02:28:11;101953.78;;;15.24;60.75
19860;BME280;2395;50.738;7.122;2022-08-07T02:30:41;101952.09;;;15.23;62.33
19860;BME280;2395;50.738;7.122;2022-08-07T02:33:10;101951.41;;;15.18;62.71
19860;BME280;2395;50.738;7.122;2022-08-07T02:35:40;101961.28;;;15.07;61.21
19860;BME280;2395;50.738;7.122;2022-08-07T02:38:10;101956.91;;;15.09;62.21
19860;BME280;2395;50.738;7.122;2022-08-07T02:40:39;101954.31;;;15.09;62.50
19860;BME280;2395;50.738;7.122;2022-08-07T02:43:08;101953.53;;;15.07;63.35
19860;BME280;2395;50.738;7.122;2022-08-07T02:45:39;101952.38;;;15.15;63.39
19860;BME280;2395;50.738;7.122;2022-08-07T02:48:08;101957.00;;;15.06;63.70
19860;BME280;2395;50.738;7.122;2022-08-07T02:50:41;101959.06;;;15.21;63.02
19860;BME280;2395;50.738;7.122;2022-08-07T02:53:14;101951.41;;;15.18;62.16
19860;BME280;2395;50.738;7.122;2022-08-07T02:55:46;101960.97;;;15.16;62.70
19860;BME280;2395;50.738;7.122;2022-08-07T02:58:19;101957.06;;;15.04;63.30
19860;BME280;2395;50.738;7.122;2022-08-07T03:00:50;101944.88;;;15.08;64.02
19860;BME280;2395;50.738;7.122;2022-08-07T03:03:20;101947.88;;;14.96;63.83
19860;BME280;2395;50.738;7.122;2022-08-07T03:05:52;101947.78;;;14.99;63.53
19860;BME280;2395;50.738;7.122;2022-08-07T03:08:20;101947.94;;;14.94;64.74
19860;BME280;2395;50.738;7.122;2022-08-07T03:10:48;101947.81;;;14.73;64.38
19860;BME280;2395;50.738;7.122;2022-08-07T03:13:17;101947.81;;;14.73;64.48
19860;BME280;2395;50.738;7.122;2022-08-07T03:15:45;101938.34;;;14.72;65.21
19860;BME280;2395;50.738;7.122;2022-08-07T03:18:14;101949.59;;;14.71;65.19
19860;BME280;2395;50.738;7.122;2022-08-07T03:20:42;101949.88;;;14.88;64.73
19860;BME280;2395;50.738;7.122;2022-08-07T03:23:10;101948.88;;;14.92;64.04
19860;BME280;2395;50.738;7.122;2022-08-07T03:25:40;101943.31;;;14.78;64.25
19860;BME280;2395;50.738;7.122;2022-08-07T03:28:11;101947.31;;;14.60;64.43
19860;BME280;2395;50.738;7.122;2022-08-07T03:30:42;101949.81;;;14.63;65.51
19860;BME280;2395;50.738;7.122;2022-08-07T03:33:11;101944.72;;;14.62;66.02
19860;BME280;2395;50.738;7.122;2022-08-07T03:35:41;101940.16;;;14.68;65.98
19860;BME280;2395;50.738;7.122;2022-08-07T03:38:10;101942.56;;;14.74;65.03
19860;BME280;2395;50.738;7.122;2022-08-07T03:40:39;101944.25;;;14.75;64.95
19860;BME280;2395;50.738;7.122;2022-08-07T03:43:07;101947.50;;;14.82;64.55
19860;BME280;2395;50.738;7.122;2022-08-07T03:45:34;101948.56;;;14.75;66.03
19860;BME280;2395;50.738;7.122;2022-08-07T03:48:03;101954.44;;;14.54;66.24
19860;BME280;2395;50.738;7.122;2022-08-07T03:50:33;101951.84;;;14.54;66.86
19860;BME280;2395;50.738;7.122;2022-08-07T03:53:02;101958.25;;;14.43;65.43
19860;BME280;2395;50.738;7.122;2022-08-07T03:55:31;101949.03;;;14.34;65.15
19860;BME280;2395;50.738;7.122;2022-08-07T03:57:59;101950.84;;;14.32;65.38
19860;BME280;2395;50.738;7.122;2022-08-07T04:00:29;101949.31;;;14.25;64.56
19860;BME280;2395;50.738;7.122;2022-08-07T04:02:57;101933.69;;;14.30;64.70
19860;BME280;2395;50.738;7.122;2022-08-07T04:05:26;101940.09;;;14.46;65.32
19860;BME280;2395;50.738;7.122;2022-08-07T04:07:54;101933.88;;;14.51;65.70
19860;BME280;2395;50.738;7.122;2022-08-07T04:10:22;101942.22;;;14.59;65.56
19860;BME280;2395;50.738;7.122;2022-08-07T04:12:50;101936.09;;;14.61;65.25
19860;BME280;2395;50.738;7.122;2022-08-07T04:15:19;101939.22;;;14.45;64.78
19860;BME280;2395;50.738;7.122;2022-08-07T04:17:46;101939.72;;;14.30;64.57
19860;BME280;2395;50.738;7.122;2022-08-07T04:20:13;101940.53;;;14.31;64.57
19860;BME280;2395;50.738;7.122;2022-08-07T04:22:42;101950.31;;;14.21;65.48
19860;BME280;2395;50.738;7.122;2022-08-07T04:25:09;101957.06;;;14.25;65.03
19860;BME280;2395;50.738;7.122;2022-08-07T04:27:37;101951.69;;;14.33;65.12
19860;BME280;2395;50.738;7.122;2022-08-07T04:30:06;101955.50;;;14.49;65.75
19860;BME280;2395;50.738;7.122;2022-08-07T04:32:34;101953.16;;;14.41;65.94
19860;BME280;2395;50.738;7.122;2022-08-07T04:35:03;101958.75;;;14.53;65.78
19860;BME280;2395;50.738;7.122;2022-08-07T04:37:30;101953.53;;;14.55;65.38
19860;BME280;2395;50.738;7.122;2022-08-07T04:39:59;101954.56;;;14.50;63.99
19860;BME280;2395;50.738;7.122;2022-08-07T04:42:26;101955.72;;;14.67;63.97
19860;BME280;2395;50.738;7.122;2022-08-07T04:44:57;101957.88;;;14.80;65.16
19860;BME280;2395;50.738;7.122;2022-08-07T04:47:36;101954.38;;;14.81;64.13
19860;BME280;2395;50.738;7.122;2022-08-07T04:50:11;101961.69;;;14.69;63.92
19860;BME280;2395;50.738;7.122;2022-08-07T04:52:46;101964.28;;;14.69;64.70
19860;BME280;2395;50.738;7.122;2022-08-07T04:55:25;101969.53;;;14.66;64.67
19860;BME280;2395;50.738;7.122;2022-08-07T04:58:04;101974.84;;;14.61;64.51
19860;BME280;2395;50.738;7.122;2022-08-07T05:00:47;101983.31;;;14.66;66.52
19860;BME280;2395;50.738;7.122;2022-08-07T05:03:24;101983.97;;;14.73;64.48
19860;BME280;2395;50.738;7.122;2022-08-07T05:06:02;101981.88;;;14.58;65.54
19860;BME280;2395;50.738;7.122;2022-08-07T05:08:43;101981.66;;;14.64;64.59
19860;BME280;2395;50.738;7.122;2022-08-07T05:11:21;101980.59;;;14.71;65.87
19860;BME280;2395;50.738;7.122;2022-08-07T05:13:57;101978.59;;;14.53;64.96
19860;BME280;2395;50.738;7.122;2022-08-07T05:16:29;101984.97;;;14.69;66.51
19860;BME280;2395;50.738;7.122;2022-08-07T05:19:04;101983.03;;;14.48;66.69
19860;BME280;2395;50.738;7.122;2022-08-07T05:21:34;101991.22;;;14.35;67.35
19860;BME280;2395;50.738;7.122;2022-08-07T05:24:10;101996.13;;;14.15;68.88
19860;BME280;2395;50.738;7.122;2022-08-07T05:26:40;101999.47;;;14.18;68.30
19860;BME280;2395;50.738;7.122;2022-08-07T05:29:09;101992.84;;;14.37;67.65
19860;BME280;2395;50.738;7.122;2022-08-07T05:31:40;101990.22;;;14.66;66.85
19860;BME280;2395;50.738;7.122;2022-08-07T05:34:12;101995.53;;;14.61;67.90
19860;BME280;2395;50.738;7.122;2022-08-07T05:36:42;101993.69;;;14.65;67.00
19860;BME280;2395;50.738;7.122;2022-08-07T05:39:11;101992.78;;;14.67;66.42
19860;BME280;2395;50.738;7.122;2022-08-07T05:41:40;101990.34;;;14.61;67.94
19860;BME280;2395;50.738;7.122;2022-08-07T05:44:11;101991.44;;;14.82;66.55
19860;BME280;2395;50.738;7.122;2022-08-07T05:46:40;101993.13;;;14.83;67.10
19860;BME280;2395;50.738;7.122;2022-08-07T05:49:09;101991.38;;;14.83;67.30
19860;BME280;2395;50.738;7.122;2022-08-07T05:51:37;101996.81;;;15.00;66.36
19860;BME280;2395;50.738;7.122;2022-08-07T05:54:04;101994.78;;;14.84;66.16
19860;BME280;2395;50.738;7.122;2022-08-07T05:56:33;102003.94;;;14.94;66.68
19860;BME280;2395;50.738;7.122;2022-08-07T05:59:07;102001.13;;;14.75;66.87
19860;BME280;2395;50.738;7.122;2022-08-07T06:01:40;102001.56;;;14.62;66.97
19860;BME280;2395;50.738;7.122;2022-08-07T06:04:10;101999.47;;;14.99;67.25
19860;BME280;2395;50.738;7.122;2022-08-07T06:06:40;101998.31;;;15.33;64.55
19860;BME280;2395;50.738;7.122;2022-08-07T08:06:52;101958.59;;;19.44;48.15
19860;BME280;2395;50.738;7.122;2022-08-07T08:09:24;101957.47;;;19.33;47.03
19860;BME280;2395;50.738;7.122;2022-08-07T08:11:53;101950.84;;;19.10;47.21
19860;BME280;2395;50.738;7.122;2022-08-07T08:14:21;101946.91;;;19.19;46.93
19860;BME280;2395;50.738;7.122;2022-08-07T08:16:50;101942.53;;;19.36;46.99
19860;BME280;2395;50.738;7.122;2022-08-07T08:19:25;101943.38;;;19.69;46.95
19860;BME280;2395;50.738;7.122;2022-08-07T08:21:57;101947.34;;;19.91;46.61
19860;BME280;2395;50.738;7.122;2022-08-07T08:24:45;101944.63;;;20.10;45.56
19860;BME280;2395;50.738;7.122;2022-08-07T08:27:36;101941.56;;;20.33;44.42
19860;BME280;2395;50.738;7.122;2022-08-07T08:30:09;101936.41;;;20.47;44.30
19860;BME280;2395;50.738;7.122;2022-08-07T08:32:40;101932.91;;;20.62;44.81
19860;BME280;2395;50.738;7.122;2022-08-07T08:35:13;101933.13;;;20.59;43.96
19860;BME280;2395;50.738;7.122;2022-08-07T08:37:46;101930.69;;;20.56;44.19
19860;BME280;2395;50.738;7.122;2022-08-07T08:40:22;101928.06;;;20.56;44.26
19860;BME280;2395;50.738;7.122;2022-08-07T08:43:07;101925.28;;;20.59;44.88
19860;BME280;2395;50.738;7.122;2022-08-07T08:45:43;101914.81;;;20.74;44.04
19860;BME280;2395;50.738;7.122;2022-08-07T08:48:25;101918.22;;;20.61;44.46
19860;BME280;2395;50.738;7.122;2022-08-07T08:50:59;101917.56;;;20.42;44.63
19860;BME280;2395;50.738;7.122;2022-08-07T08:53:36;101921.63;;;20.32;44.78
19860;BME280;2395;50.738;7.122;2022-08-07T08:56:14;101917.06;;;20.51;44.76
19860;BME280;2395;50.738;7.122;2022-08-07T08:58:50;101914.97;;;20.42;43.94
19860;BME280;2395;50.738;7.122;2022-08-07T09:01:25;101911.06;;;20.64;43.46
19860;BME280;2395;50.738;7.122;2022-08-07T09:04:03;101910.13;;;20.65;44.34
19860;BME280;2395;50.738;7.122;2022-08-07T09:06:45;101905.47;;;20.70;44.29
19860;BME280;2395;50.738;7.122;2022-08-07T09:09:46;101906.28;;;20.86;43.18
19860;BME280;2395;50.738;7.122;2022-08-07T09:12:45;101900.47;;;21.24;42.65
19860;BME280;2395;50.738;7.122;2022-08-07T09:15:31;101900.56;;;21.23;41.76
19860;BME280;2395;50.738;7.122;2022-08-07T09:18:20;101903.28;;;21.35;42.05
19860;BME280;2395;50.738;7.122;2022-08-07T09:21:04;101904.59;;;21.56;41.13
19860;BME280;2395;50.738;7.122;2022-08-07T09:23:56;101901.66;;;21.47;40.64
19860;BME280;2395;50.738;7.122;2022-08-07T09:26:39;101903.09;;;21.66;41.16
19860;BME280;2395;50.738;7.122;2022-08-07T09:29:20;101897.19;;;21.49;41.33
19860;BME280;2395;50.738;7.122;2022-08-07T09:32:00;101891.88;;;21.78;40.54
19860;BME280;2395;50.738;7.122;2022-08-07T09:34:53;101883.69;;;22.10;40.08
19860;BME280;2395;50.738;7.122;2022-08-07T09:37:33;101874.44;;;22.05;39.40
19860;BME280;2395;50.738;7.122;2022-08-07T09:40:15;101879.09;;;21.73;40.12
19860;BME280;2395;50.738;7.122;2022-08-07T09:43:24;101869.38;;;22.16;39.83
19860;BME280;2395;50.738;7.122;2022-08-07T09:46:12;101864.56;;;22.48;39.59
19860;BME280;2395;50.738;7.122;2022-08-07T09:48:52;101859.19;;;22.89;39.19
19860;BME280;2395;50.738;7.122;2022-08-07T09:51:39;101862.66;;;23.14;38.03
19860;BME280;2395;50.738;7.122;2022-08-07T09:54:17;101859.56;;;22.70;38.29
19860;BME280;2395;50.738;7.122;2022-08-07T09:57:20;101861.78;;;23.01;38.43
19860;BME280;2395;50.738;7.122;2022-08-07T10:00:42;101858.13;;;23.04;37.52
19860;BME280;2395;50.738;7.122;2022-08-07T10:03:49;101855.22;;;23.08;36.94
19860;BME280;2395;50.738;7.122;2022-08-07T10:14:08;101828.63;;;24.09;35.11
19860;BME280;2395;50.738;7.122;2022-08-07T10:17:05;101828.69;;;23.97;35.19
19860;BME280;2395;50.738;7.122;2022-08-07T10:19:48;101823.28;;;23.51;35.58
19860;BME280;2395;50.738;7.122;2022-08-07T10:22:37;101822.19;;;23.66;35.50
19860;BME280;2395;50.738;7.122;2022-08-07T10:25:23;101820.50;;;23.78;35.26
19860;BME280;2395;50.738;7.122;2022-08-07T10:28:17;101820.56;;;23.53;35.47
19860;BME280;2395;50.738;7.122;2022-08-07T10:31:06;101817.06;;;24.01;34.41
19860;BME280;2395;50.738;7.122;2022-08-07T10:34:02;101807.94;;;24.17;33.82
19860;BME280;2395;50.738;7.122;2022-08-07T10:36:50;101809.38;;;24.21;33.31
19860;BME280;2395;50.738;7.122;2022-08-07T10:39:39;101803.81;;;24.36;32.63
19860;BME280;2395;50.738;7.122;2022-08-07T10:42:25;101798.78;;;23.99;32.52
19860;BME280;2395;50.738;7.122;2022-08-07T10:45:08;101789.63;;;24.05;33.23
19860;BME280;2395;50.738;7.122;2022-08-07T10:47:47;101796.16;;;24.33;32.71
19860;BME280;2395;50.738;7.122;2022-08-07T10:50:21;101785.63;;;24.46;32.36
19860;BME280;2395;50.738;7.122;2022-08-07T10:52:59;101786.50;;;24.79;32.50
19860;BME280;2395;50.738;7.122;2022-08-07T10:55:40;101787.56;;;24.55;33.05
19860;BME280;2395;50.738;7.122;2022-08-07T10:58:22;101793.19;;;25.05;32.67
19860;BME280;2395;50.738;7.122;2022-08-07T11:01:07;101782.22;;;24.89;31.11
19860;BME280;2395;50.738;7.122;2022-08-07T11:03:42;101771.81;;;25.31;31.05
19860;BME280;2395;50.738;7.122;2022-08-07T11:06:20;101782.13;;;25.23;31.09
19860;BME280;2395;50.738;7.122;2022-08-07T11:08:59;101770.19;;;25.62;31.79
19860;BME280;2395;50.738;7.122;2022-08-07T11:11:34;101764.03;;;25.94;31.79
19860;BME280;2395;50.738;7.122;2022-08-07T11:14:11;101773.50;;;25.75;31.40
19860;BME280;2395;50.738;7.122;2022-08-07T11:16:47;101769.06;;;24.78;31.46
19860;BME280;2395;50.738;7.122;2022-08-07T11:19:23;101759.41;;;25.33;31.33
19860;BME280;2395;50.738;7.122;2022-08-07T11:22:05;101754.13;;;25.44;31.81
19860;BME280;2395;50.738;7.122;2022-08-07T11:24:45;101751.09;;;25.60;31.04
19860;BME280;2395;50.738;7.122;2022-08-07T11:27:23;101750.06;;;25.40;31.06
19860;BME280;2395;50.738;7.122;2022-08-07T11:30:02;101755.88;;;25.55;31.18
19860;BME280;2395;50.738;7.122;2022-08-07T11:32:39;101744.66;;;25.42;31.68
19860;BME280;2395;50.738;7.122;2022-08-07T11:35:15;101755.31;;;25.72;30.00
19860;BME280;2395;50.738;7.122;2022-08-07T11:38:07;101738.00;;;25.69;30.79
19860;BME280;2395;50.738;7.122;2022-08-07T11:40:47;101739.53;;;25.72;30.54
19860;BME280;2395;50.738;7.122;2022-08-07T11:43:21;101734.31;;;25.61;30.36
19860;BME280;2395;50.738;7.122;2022-08-07T11:46:17;101730.97;;;25.70;30.99
19860;BME280;2395;50.738;7.122;2022-08-07T11:49:20;101730.41;;;25.98;30.59
19860;BME280;2395;50.738;7.122;2022-08-07T11:52:07;101728.81;;;25.95;30.34
19860;BME280;2395;50.738;7.122;2022-08-07T11:55:00;101727.88;;;25.96;30.00
19860;BME280;2395;50.738;7.122;2022-08-07T11:57:35;101722.59;;;26.37;30.22
19860;BME280;2395;50.738;7.122;2022-08-07T12:00:08;101720.31;;;26.02;30.83
19860;BME280;2395;50.738;7.122;2022-08-07T12:02:56;101717.47;;;25.95;30.29
19860;BME280;2395;50.738;7.122;2022-08-07T12:05:41;101725.13;;;25.55;31.50
19860;BME280;2395;50.738;7.122;2022-08-07T12:08:17;101715.91;;;26.03;30.41
19860;BME280;2395;50.738;7.122;2022-08-07T12:10:51;101709.06;;;25.49;30.63
19860;BME280;2395;50.738;7.122;2022-08-07T12:13:27;101709.66;;;25.73;30.62
19860;BME280;2395;50.738;7.122;2022-08-07T12:16:02;101705.16;;;25.95;29.89
19860;BME280;2395;50.738;7.122;2022-08-07T12:18:37;101705.91;;;25.86;31.08
19860;BME280;2395;50.738;7.122;2022-08-07T12:21:22;101703.06;;;25.47;30.83
19860;BME280;2395;50.738;7.122;2022-08-07T12:23:56;101708.16;;;26.31;30.86
19860;BME280;2395;50.738;7.122;2022-08-07T12:26:36;101704.09;;;25.98;30.46
19860;BME280;2395;50.738;7.122;2022-08-07T12:29:11;101703.25;;;26.17;30.84
19860;BME280;2395;50.738;7.122;2022-08-07T12:31:48;101697.50;;;26.53;30.45
19860;BME280;2395;50.738;7.122;2022-08-07T12:34:19;101697.97;;;27.07;28.88
19860;BME280;2395;50.738;7.122;2022-08-07T12:36:48;101694.41;;;27.27;29.21
19860;BME280;2395;50.738;7.122;2022-08-07T12:39:19;101694.72;;;27.62;28.56
19860;BME280;2395;50.738;7.122;2022-08-07T12:41:51;101687.75;;;27.23;27.59
19860;BME280;2395;50.738;7.122;2022-08-07T12:44:20;101689.56;;;27.32;29.33
19860;BME280;2395;50.738;7.122;2022-08-07T12:47:05;101690.66;;;27.10;28.84
19860;BME280;2395;50.738;7.122;2022-08-07T12:49:48;101681.38;;;27.16;28.72
19860;BME280;2395;50.738;7.122;2022-08-07T12:52:26;101681.41;;;27.35;28.78
19860;BME280;2395;50.738;7.122;2022-08-07T12:55:02;101673.75;;;27.41;28.53
19860;BME280;2395;50.738;7.122;2022-08-07T12:57:33;101669.16;;;27.43;27.99
19860;BME280;2395;50.738;7.122;2022-08-07T13:00:03;101675.28;;;27.91;28.32
19860;BME280;2395;50.738;7.122;2022-08-07T13:02:55;101669.44;;;27.50;27.19
19860;BME280;2395;50.738;7.122;2022-08-07T13:05:44;101661.25;;;27.62;27.67
19860;BME280;2395;50.738;7.122;2022-08-07T13:08:31;101668.78;;;27.67;28.20
19860;BME280;2395;50.738;7.122;2022-08-07T13:11:39;101653.78;;;28.68;26.95
19860;BME280;2395;50.738;7.122;2022-08-07T13:14:20;101645.31;;;28.38;27.29
19860;BME280;2395;50.738;7.122;2022-08-07T13:16:59;101642.06;;;28.53;27.10
19860;BME280;2395;50.738;7.122;2022-08-07T13:19:42;101642.47;;;28.03;28.39
19860;BME280;2395;50.738;7.122;2022-08-07T13:22:20;101648.34;;;27.97;28.56
19860;BME280;2395;50.738;7.122;2022-08-07T13:25:02;101640.50;;;28.60;27.21
19860;BME280;2395;50.738;7.122;2022-08-07T13:27:36;101638.56;;;28.89;26.77
19860;BME280;2395;50.738;7.122;2022-08-07T13:30:10;101630.84;;;28.95;26.85
19860;BME280;2395;50.738;7.122;2022-08-07T13:32:46;101640.09;;;29.26;26.59
19860;BME280;2395;50.738;7.122;2022-08-07T13:35:25;101636.88;;;28.78;26.83
19860;BME280;2395;50.738;7.122;2022-08-07T13:38:03;101628.00;;;29.06;26.55
19860;BME280;2395;50.738;7.122;2022-08-07T13:40:56;101624.69;;;28.77;26.93
19860;BME280;2395;50.738;7.122;2022-08-07T13:43:28;101617.72;;;29.03;27.14
19860;BME280;2395;50.738;7.122;2022-08-07T13:46:01;101624.66;;;29.74;26.55
19860;BME280;2395;50.738;7.122;2022-08-07T13:48:30;101622.56;;;29.08;25.99
19860;BME280;2395;50.738;7.122;2022-08-07T13:50:59;101618.56;;;29.81;26.34
19860;BME280;2395;50.738;7.122;2022-08-07T13:53:32;101621.34;;;29.37;25.96
19860;BME280;2395;50.738;7.122;2022-08-07T13:56:03;101620.19;;;29.57;26.38
19860;BME280;2395;50.738;7.122;2022-08-07T13:58:38;101611.16;;;29.42;26.30
19860;BME280;2395;50.738;7.122;2022-08-07T14:01:28;101607.13;;;29.55;25.98
19860;BME280;2395;50.738;7.122;2022-08-07T14:03:57;101606.03;;;29.41;25.85
19860;BME280;2395;50.738;7.122;2022-08-07T14:06:31;101601.16;;;29.53;26.08
19860;BME280;2395;50.738;7.122;2022-08-07T14:09:01;101594.13;;;29.62;25.66
19860;BME280;2395;50.738;7.122;2022-08-07T14:11:31;101586.03;;;29.89;25.93
19860;BME280;2395;50.738;7.122;2022-08-07T14:14:07;101587.50;;;30.09;25.79
19860;BME280;2395;50.738;7.122;2022-08-07T14:16:41;101589.59;;;30.72;25.51
19860;BME280;2395;50.738;7.122;2022-08-07T14:19:18;101586.25;;;30.62;24.14
19860;BME280;2395;50.738;7.122;2022-08-07T14:21:50;101582.81;;;29.52;26.29
19860;BME280;2395;50.738;7.122;2022-08-07T14:24:27;101578.19;;;29.79;26.15
19860;BME280;2395;50.738;7.122;2022-08-07T14:26:59;101572.53;;;30.74;25.12
19860;BME280;2395;50.738;7.122;2022-08-07T14:29:31;101577.63;;;29.93;25.42
19860;BME280;2395;50.738;7.122;2022-08-07T14:32:04;101572.88;;;29.37;26.46
19860;BME280;2395;50.738;7.122;2022-08-07T14:34:36;101574.47;;;28.77;26.68
19860;BME280;2395;50.738;7.122;2022-08-07T14:37:08;101556.56;;;29.84;25.87
19860;BME280;2395;50.738;7.122;2022-08-07T14:39:39;101569.06;;;30.82;24.55
19860;BME280;2395;50.738;7.122;2022-08-07T14:42:09;101562.03;;;31.30;24.17
19860;BME280;2395;50.738;7.122;2022-08-07T14:44:43;101558.50;;;31.53;23.59
19860;BME280;2395;50.738;7.122;2022-08-07T14:47:15;101555.78;;;32.09;23.71
19860;BME280;2395;50.738;7.122;2022-08-07T14:49:44;101548.91;;;31.44;24.60
19860;BME280;2395;50.738;7.122;2022-08-07T14:52:12;101543.44;;;31.22;23.45
19860;BME280;2395;50.738;7.122;2022-08-07T14:54:42;101542.88;;;31.82;23.86
19860;BME280;2395;50.738;7.122;2022-08-07T14:57:12;101545.25;;;31.30;23.98
19860;BME280;2395;50.738;7.122;2022-08-07T14:59:41;101549.69;;;32.31;23.56
19860;BME280;2395;50.738;7.122;2022-08-07T15:02:11;101539.91;;;31.69;23.64
19860;BME280;2395;50.738;7.122;2022-08-07T15:04:43;101537.94;;;31.63;22.79
19860;BME280;2395;50.738;7.122;2022-08-07T15:07:16;101540.59;;;31.63;24.16
19860;BME280;2395;50.738;7.122;2022-08-07T15:09:47;101537.22;;;32.31;22.44
19860;BME280;2395;50.738;7.122;2022-08-07T15:12:18;101533.94;;;32.22;23.64
19860;BME280;2395;50.738;7.122;2022-08-07T15:14:52;101531.13;;;33.28;22.37
19860;BME280;2395;50.738;7.122;2022-08-07T15:17:27;101528.72;;;32.44;22.33
19860;BME280;2395;50.738;7.122;2022-08-07T15:20:04;101530.84;;;32.10;23.30
19860;BME280;2395;50.738;7.122;2022-08-07T15:22:45;101526.34;;;33.24;21.45
19860;BME280;2395;50.738;7.122;2022-08-07T15:25:17;101533.97;;;34.71;20.92
19860;BME280;2395;50.738;7.122;2022-08-07T15:27:54;101524.44;;;35.52;20.27
19860;BME280;2395;50.738;7.122;2022-08-07T15:30:24;101527.69;;;34.99;20.73
19860;BME280;2395;50.738;7.122;2022-08-07T15:32:54;101522.03;;;32.78;21.70
19860;BME280;2395;50.738;7.122;2022-08-07T15:35:25;101531.78;;;35.50;19.30
19860;BME280;2395;50.738;7.122;2022-08-07T15:37:57;101523.06;;;35.35;20.28
19860;BME280;2395;50.738;7.122;2022-08-07T15:40:28;101529.31;;;34.59;20.69
19860;BME280;2395;50.738;7.122;2022-08-07T15:43:04;101519.97;;;34.69;19.86
19860;BME280;2395;50.738;7.122;2022-08-07T15:45:41;101516.00;;;34.44;20.63